createdAt,value
2018-06-19T00:00:32.150Z,0.00
2018-06-19T00:01:32.143Z,0.00
2018-06-19T00:02:32.131Z,0.00
2018-06-19T00:03:32.126Z,0.00
2018-06-19T00:04:32.115Z,0.00
2018-06-19T00:05:32.103Z,0.00
2018-06-19T00:06:32.095Z,0.00
2018-06-19T00:07:32.083Z,0.00
2018-06-19T00:08:32.078Z,0.00
2018-06-19T00:09:32.066Z,0.00
2018-06-19T00:10:32.059Z,0.00
2018-06-19T00:11:32.038Z,0.00
2018-06-19T00:12:32.034Z,0.00
2018-06-19T00:13:32.026Z,0.00
2018-06-19T00:14:32.018Z,0.00
2018-06-19T00:15:32.006Z,0.00
2018-06-19T00:16:31.991Z,0.00
2018-06-19T00:17:31.985Z,0.00
2018-06-19T00:18:31.977Z,0.00
2018-06-19T00:19:31.961Z,0.00
2018-06-19T00:20:31.956Z,0.00
2018-06-19T00:21:31.943Z,0.00
2018-06-19T00:22:31.935Z,0.00
2018-06-19T00:23:31.927Z,0.00
2018-06-19T00:24:31.920Z,0.00
2018-06-19T00:25:31.903Z,0.00
2018-06-19T00:26:31.898Z,0.00
2018-06-19T00:27:31.886Z,0.00
2018-06-19T00:28:31.877Z,0.00
2018-06-19T00:29:31.870Z,0.00
2018-06-19T00:30:31.853Z,0.00
2018-06-19T00:31:31.851Z,0.00
2018-06-19T00:32:31.835Z,0.00
2018-06-19T00:33:31.825Z,0.00
2018-06-19T00:34:31.815Z,0.00
2018-06-19T00:35:31.803Z,0.00
2018-06-19T00:36:31.793Z,0.00
2018-06-19T00:37:31.786Z,0.00
2018-06-19T00:38:31.775Z,0.00
2018-06-19T00:39:31.764Z,0.00
2018-06-19T00:40:31.758Z,0.00
2018-06-19T00:41:31.743Z,0.00
2018-06-19T00:42:31.735Z,0.00
2018-06-19T00:43:31.724Z,0.00
2018-06-19T00:44:31.720Z,0.00
2018-06-19T00:45:31.705Z,0.00
2018-06-19T00:46:31.693Z,0.00
2018-06-19T00:47:31.692Z,0.00
2018-06-19T00:48:31.675Z,0.00
2018-06-19T00:49:31.668Z,0.00
2018-06-19T00:50:31.653Z,0.00
2018-06-19T00:51:31.655Z,0.00
2018-06-19T00:52:31.638Z,0.00
2018-06-19T00:53:31.624Z,0.00
2018-06-19T00:54:31.618Z,0.00
2018-06-19T00:55:31.602Z,0.00
2018-06-19T00:56:31.597Z,0.00
2018-06-19T00:57:31.580Z,0.00
2018-06-19T00:58:31.569Z,0.00
2018-06-19T00:59:31.562Z,0.00
2018-06-19T01:00:31.557Z,0.00
2018-06-19T01:01:31.545Z,0.00
2018-06-19T01:02:31.533Z,0.00
2018-06-19T01:03:31.522Z,0.00
2018-06-19T01:04:31.513Z,0.00
2018-06-19T01:05:31.500Z,0.00
2018-06-19T01:06:31.495Z,0.00
2018-06-19T01:07:31.481Z,0.00
2018-06-19T01:08:31.480Z,0.00
2018-06-19T01:09:31.460Z,0.00
2018-06-19T01:10:31.451Z,0.00
2018-06-19T01:11:31.444Z,0.00
2018-06-19T01:12:31.436Z,0.00
2018-06-19T01:13:31.426Z,0.00
2018-06-19T01:14:31.418Z,0.00
2018-06-19T01:15:31.406Z,0.00
2018-06-19T01:16:31.390Z,0.00
2018-06-19T01:17:31.382Z,0.00
2018-06-19T01:18:31.367Z,0.00
2018-06-19T01:19:31.360Z,0.00
2018-06-19T01:20:31.351Z,0.00
2018-06-19T01:21:31.343Z,0.00
2018-06-19T01:22:31.333Z,0.00
2018-06-19T01:23:31.323Z,0.00
2018-06-19T01:24:31.309Z,0.00
2018-06-19T01:25:31.299Z,0.00
2018-06-19T01:26:31.289Z,0.00
2018-06-19T01:27:31.279Z,0.00
2018-06-19T01:28:31.278Z,0.00
2018-06-19T01:29:31.261Z,0.00
2018-06-19T01:30:31.249Z,0.00
2018-06-19T01:31:31.238Z,0.00
2018-06-19T01:32:31.228Z,0.00
2018-06-19T01:33:31.222Z,0.00
2018-06-19T01:34:31.209Z,0.00
2018-06-19T01:35:31.200Z,0.00
2018-06-19T01:36:31.188Z,0.00
2018-06-19T01:37:31.176Z,0.00
2018-06-19T01:38:31.167Z,0.00
2018-06-19T01:39:31.155Z,0.00
2018-06-19T01:40:31.143Z,0.00
2018-06-19T01:41:31.133Z,0.00
2018-06-19T01:42:31.125Z,0.00
2018-06-19T01:43:31.116Z,0.00
2018-06-19T01:44:31.107Z,0.00
2018-06-19T01:45:31.096Z,0.00
2018-06-19T01:46:31.084Z,0.00
2018-06-19T01:47:31.075Z,0.00
2018-06-19T01:48:31.065Z,0.00
2018-06-19T01:49:31.051Z,0.00
2018-06-19T01:50:31.043Z,0.00
2018-06-19T01:51:31.027Z,0.00
2018-06-19T01:52:31.022Z,0.00
2018-06-19T01:53:31.010Z,0.00
2018-06-19T01:54:31.002Z,0.00
2018-06-19T01:55:30.996Z,0.00
2018-06-19T01:56:30.980Z,0.00
2018-06-19T01:57:30.969Z,0.00
2018-06-19T01:58:30.964Z,0.00
2018-06-19T01:59:30.954Z,0.00
2018-06-19T02:00:30.939Z,0.00
2018-06-19T02:01:30.923Z,0.00
2018-06-19T02:02:30.919Z,0.00
2018-06-19T02:03:30.909Z,0.00
2018-06-19T02:04:30.897Z,0.00
2018-06-19T02:05:30.887Z,0.00
2018-06-19T02:06:30.875Z,0.00
2018-06-19T02:07:30.863Z,0.00
2018-06-19T02:08:30.853Z,0.00
2018-06-19T02:09:30.852Z,0.00
2018-06-19T02:10:30.840Z,0.00
2018-06-19T02:11:30.822Z,0.00
2018-06-19T02:12:30.813Z,0.00
2018-06-19T02:13:30.807Z,0.00
2018-06-19T02:14:30.793Z,0.00
2018-06-19T02:15:30.783Z,0.00
2018-06-19T02:16:30.774Z,0.00
2018-06-19T02:17:30.766Z,0.00
2018-06-19T02:18:30.753Z,0.00
2018-06-19T02:19:30.746Z,0.00
2018-06-19T02:20:30.739Z,0.00
2018-06-19T02:21:30.721Z,0.00
2018-06-19T02:22:30.714Z,0.00
2018-06-19T02:23:30.702Z,0.00
2018-06-19T02:24:30.686Z,0.00
2018-06-19T02:25:30.679Z,0.00
2018-06-19T02:26:30.667Z,0.00
2018-06-19T02:27:30.661Z,0.00
2018-06-19T02:28:30.654Z,0.00
2018-06-19T02:29:30.643Z,0.00
2018-06-19T02:30:30.631Z,0.00
2018-06-19T02:31:30.619Z,0.00
2018-06-19T02:32:30.604Z,0.00
2018-06-19T02:33:30.603Z,0.00
2018-06-19T02:34:30.590Z,0.00
2018-06-19T02:35:30.584Z,0.00
2018-06-19T02:36:30.564Z,0.00
2018-06-19T02:37:30.554Z,0.00
2018-06-19T02:38:30.550Z,0.00
2018-06-19T02:39:30.536Z,0.00
2018-06-19T02:40:30.525Z,0.00
2018-06-19T02:41:30.514Z,0.00
2018-06-19T02:42:30.505Z,0.00
2018-06-19T02:43:30.493Z,0.00
2018-06-19T02:44:30.490Z,0.00
2018-06-19T02:45:30.478Z,0.00
2018-06-19T02:46:30.467Z,0.00
2018-06-19T02:47:30.452Z,0.00
2018-06-19T02:48:30.443Z,0.00
2018-06-19T02:49:30.435Z,0.00
2018-06-19T02:50:30.421Z,0.00
2018-06-19T02:51:30.407Z,0.00
2018-06-19T02:52:30.399Z,0.00
2018-06-19T02:53:30.395Z,0.00
2018-06-19T02:54:30.382Z,0.00
2018-06-19T02:55:30.371Z,0.00
2018-06-19T02:56:30.364Z,0.00
2018-06-19T02:57:30.350Z,0.00
2018-06-19T02:58:30.342Z,0.00
2018-06-19T02:59:30.328Z,0.00
2018-06-19T03:00:30.350Z,0.00
2018-06-19T03:01:30.310Z,0.00
2018-06-19T03:02:30.300Z,0.00
2018-06-19T03:03:30.290Z,0.00
2018-06-19T03:04:30.273Z,0.00
2018-06-19T03:05:30.267Z,0.00
2018-06-19T03:06:30.253Z,0.00
2018-06-19T03:07:30.247Z,0.00
2018-06-19T03:08:30.233Z,0.00
2018-06-19T03:09:30.231Z,0.00
2018-06-19T03:10:30.221Z,0.00
2018-06-19T03:11:30.203Z,0.00
2018-06-19T03:12:30.195Z,0.00
2018-06-19T03:13:30.184Z,0.00
2018-06-19T03:14:30.181Z,0.00
2018-06-19T03:15:30.164Z,0.00
2018-06-19T03:16:30.156Z,0.00
2018-06-19T03:17:30.136Z,0.00
2018-06-19T03:18:30.136Z,0.00
2018-06-19T03:19:30.126Z,0.00
2018-06-19T03:20:30.109Z,0.00
2018-06-19T03:21:30.105Z,0.00
2018-06-19T03:22:30.095Z,0.00
2018-06-19T03:23:30.085Z,0.00
2018-06-19T03:24:30.073Z,0.00
2018-06-19T03:25:30.061Z,0.00
2018-06-19T03:26:30.049Z,0.00
2018-06-19T03:27:30.039Z,0.00
2018-06-19T03:28:30.029Z,0.00
2018-06-19T03:29:30.024Z,0.00
2018-06-19T03:30:30.010Z,0.00
2018-06-19T03:31:30.003Z,0.00
2018-06-19T03:32:29.986Z,0.00
2018-06-19T03:33:29.984Z,0.00
2018-06-19T03:34:29.976Z,0.00
2018-06-19T03:35:29.961Z,0.00
2018-06-19T03:36:29.944Z,0.00
2018-06-19T03:37:29.953Z,0.00
2018-06-19T03:38:29.932Z,0.00
2018-06-19T03:39:29.912Z,0.00
2018-06-19T03:40:29.907Z,0.00
2018-06-19T03:41:29.899Z,0.00
2018-06-19T03:42:29.889Z,0.00
2018-06-19T03:43:29.877Z,0.00
2018-06-19T03:44:29.868Z,0.00
2018-06-19T03:45:29.860Z,0.00
2018-06-19T03:46:29.846Z,0.00
2018-06-19T03:47:29.838Z,0.00
2018-06-19T03:48:29.827Z,0.00
2018-06-19T03:49:29.821Z,0.00
2018-06-19T03:50:29.805Z,0.00
2018-06-19T03:51:29.799Z,0.00
2018-06-19T03:52:29.790Z,0.00
2018-06-19T03:53:29.777Z,0.00
2018-06-19T03:54:29.762Z,0.00
2018-06-19T03:55:29.754Z,0.00
2018-06-19T03:56:29.756Z,0.00
2018-06-19T03:57:29.734Z,0.00
2018-06-19T03:58:29.728Z,0.00
2018-06-19T03:59:29.716Z,0.00
2018-06-19T04:00:29.703Z,0.00
2018-06-19T04:01:29.698Z,0.00
2018-06-19T04:02:29.691Z,0.00
2018-06-19T04:03:29.674Z,0.00
2018-06-19T04:04:29.661Z,0.00
2018-06-19T04:05:29.651Z,0.00
2018-06-19T04:06:29.643Z,0.00
2018-06-19T04:07:29.629Z,0.00
2018-06-19T04:08:29.624Z,0.00
2018-06-19T04:09:29.614Z,0.00
2018-06-19T04:10:29.655Z,0.00
2018-06-19T04:11:29.595Z,0.00
2018-06-19T04:12:29.590Z,0.00
2018-06-19T04:13:29.574Z,0.00
2018-06-19T04:14:29.564Z,0.00
2018-06-19T04:15:29.553Z,0.00
2018-06-19T04:16:29.541Z,0.00
2018-06-19T04:17:29.533Z,0.00
2018-06-19T04:18:29.523Z,0.00
2018-06-19T04:19:29.513Z,0.00
2018-06-19T04:20:29.500Z,0.00
2018-06-19T04:21:29.489Z,0.00
2018-06-19T04:22:29.484Z,0.00
2018-06-19T04:23:29.468Z,0.00
2018-06-19T04:24:29.465Z,5.63
2018-06-19T04:25:29.451Z,5.63
2018-06-19T04:26:29.446Z,5.63
2018-06-19T04:27:29.431Z,5.63
2018-06-19T04:28:29.421Z,5.63
2018-06-19T04:29:29.409Z,5.63
2018-06-19T04:30:29.401Z,5.63
2018-06-19T04:31:29.391Z,5.63
2018-06-19T04:32:29.378Z,5.63
2018-06-19T04:33:29.432Z,5.63
2018-06-19T04:34:29.365Z,5.63
2018-06-19T04:35:29.350Z,5.63
2018-06-19T04:36:29.338Z,5.63
2018-06-19T04:37:29.328Z,5.63
2018-06-19T04:38:29.322Z,5.63
2018-06-19T04:39:29.306Z,5.63
2018-06-19T04:40:29.303Z,5.63
2018-06-19T04:41:29.289Z,5.63
2018-06-19T04:42:29.289Z,5.63
2018-06-19T04:43:29.272Z,5.63
2018-06-19T04:44:29.261Z,5.63
2018-06-19T04:45:29.249Z,5.63
2018-06-19T04:46:29.239Z,5.63
2018-06-19T04:47:29.227Z,5.63
2018-06-19T04:48:29.218Z,5.63
2018-06-19T04:49:29.210Z,5.63
2018-06-19T04:50:29.202Z,5.63
2018-06-19T04:51:29.202Z,5.63
2018-06-19T04:52:29.181Z,5.63
2018-06-19T04:53:29.171Z,5.63
2018-06-19T04:54:29.161Z,5.63
2018-06-19T04:55:29.147Z,5.63
2018-06-19T04:56:29.140Z,5.63
2018-06-19T04:57:29.128Z,5.63
2018-06-19T04:58:29.118Z,5.63
2018-06-19T04:59:29.110Z,5.63
2018-06-19T05:00:29.104Z,5.63
2018-06-19T05:01:29.090Z,5.63
2018-06-19T05:02:29.082Z,5.63
2018-06-19T05:03:29.068Z,5.63
2018-06-19T05:04:29.055Z,11.25
2018-06-19T05:05:29.049Z,11.25
2018-06-19T05:06:29.039Z,11.25
2018-06-19T05:07:29.029Z,11.25
2018-06-19T05:08:29.021Z,11.25
2018-06-19T05:09:29.013Z,11.25
2018-06-19T05:10:29.001Z,11.25
2018-06-19T05:11:28.991Z,11.25
2018-06-19T05:12:28.980Z,11.25
2018-06-19T05:13:28.966Z,11.25
2018-06-19T05:14:28.967Z,11.25
2018-06-19T05:15:28.969Z,11.25
2018-06-19T05:16:28.939Z,11.25
2018-06-19T05:17:28.936Z,11.25
2018-06-19T05:18:28.918Z,11.25
2018-06-19T05:19:28.910Z,11.25
2018-06-19T05:20:28.902Z,11.25
2018-06-19T05:21:28.891Z,11.25
2018-06-19T05:22:28.883Z,11.25
2018-06-19T05:23:28.876Z,11.25
2018-06-19T05:24:28.862Z,16.88
2018-06-19T05:25:28.852Z,16.88
2018-06-19T05:26:28.842Z,16.88
2018-06-19T05:27:28.832Z,16.88
2018-06-19T05:28:28.824Z,16.88
2018-06-19T05:29:28.809Z,16.88
2018-06-19T05:30:28.877Z,16.88
2018-06-19T05:31:28.796Z,16.88
2018-06-19T05:32:28.798Z,16.88
2018-06-19T05:33:28.779Z,16.88
2018-06-19T05:34:28.764Z,16.88
2018-06-19T05:35:28.749Z,22.50
2018-06-19T05:36:28.744Z,22.50
2018-06-19T05:37:28.736Z,22.50
2018-06-19T05:38:28.730Z,22.50
2018-06-19T05:39:28.716Z,22.50
2018-06-19T05:40:28.704Z,22.50
2018-06-19T05:41:28.693Z,22.50
2018-06-19T05:42:28.688Z,22.50
2018-06-19T05:43:28.668Z,22.50
2018-06-19T05:44:28.666Z,22.50
2018-06-19T05:45:28.657Z,22.50
2018-06-19T05:46:28.647Z,22.50
2018-06-19T05:47:28.636Z,22.50
2018-06-19T05:48:28.625Z,22.50
2018-06-19T05:49:28.613Z,22.50
2018-06-19T05:50:28.609Z,22.50
2018-06-19T05:51:28.596Z,22.50
2018-06-19T05:52:28.587Z,22.50
2018-06-19T05:53:28.576Z,22.50
2018-06-19T05:54:28.564Z,22.50
2018-06-19T05:55:28.562Z,22.50
2018-06-19T05:56:28.550Z,22.50
2018-06-19T05:57:28.538Z,22.50
2018-06-19T05:58:28.529Z,22.50
2018-06-19T05:59:28.518Z,22.50
2018-06-19T06:00:28.514Z,22.50
2018-06-19T06:01:28.507Z,22.50
2018-06-19T06:02:28.494Z,22.50
2018-06-19T06:03:28.480Z,22.50
2018-06-19T06:04:28.476Z,22.50
2018-06-19T06:05:28.472Z,22.50
2018-06-19T06:06:28.452Z,22.50
2018-06-19T06:07:28.446Z,28.13
2018-06-19T06:08:28.433Z,28.13
2018-06-19T06:09:28.424Z,22.50
2018-06-19T06:10:28.429Z,22.50
2018-06-19T06:11:28.405Z,22.50
2018-06-19T06:12:28.404Z,22.50
2018-06-19T06:13:28.383Z,22.50
2018-06-19T06:14:28.378Z,22.50
2018-06-19T06:15:28.376Z,22.50
2018-06-19T06:16:28.422Z,16.88
2018-06-19T06:17:28.348Z,16.88
2018-06-19T06:18:28.337Z,16.88
2018-06-19T06:19:28.331Z,16.88
2018-06-19T06:20:28.319Z,16.88
2018-06-19T06:21:28.310Z,16.88
2018-06-19T06:22:28.302Z,16.88
2018-06-19T06:23:28.291Z,16.88
2018-06-19T06:24:28.278Z,16.88
2018-06-19T06:25:28.273Z,16.88
2018-06-19T06:26:28.261Z,16.88
2018-06-19T06:27:28.248Z,16.88
2018-06-19T06:28:28.248Z,16.88
2018-06-19T06:29:28.231Z,16.88
2018-06-19T06:30:28.224Z,16.88
2018-06-19T06:31:28.214Z,16.88
2018-06-19T06:32:28.202Z,16.88
2018-06-19T06:33:28.192Z,16.88
2018-06-19T06:34:28.183Z,16.88
2018-06-19T06:35:28.173Z,28.13
2018-06-19T06:36:28.168Z,22.50
2018-06-19T06:37:28.153Z,16.88
2018-06-19T06:38:28.148Z,16.88
2018-06-19T06:39:28.135Z,16.88
2018-06-19T06:40:28.143Z,16.88
2018-06-19T06:41:28.117Z,16.88
2018-06-19T06:42:28.106Z,16.88
2018-06-19T06:43:28.096Z,22.50
2018-06-19T06:44:28.086Z,28.13
2018-06-19T06:45:28.078Z,22.50
2018-06-19T06:46:28.072Z,22.50
2018-06-19T06:47:28.058Z,22.50
2018-06-19T06:48:28.055Z,22.50
2018-06-19T06:49:28.041Z,22.50
2018-06-19T06:50:28.117Z,22.50
2018-06-19T06:51:28.059Z,22.50
2018-06-19T06:52:28.015Z,16.88
2018-06-19T06:53:28.011Z,16.88
2018-06-19T06:54:27.999Z,22.50
2018-06-19T06:55:27.981Z,45.00
2018-06-19T06:56:27.976Z,67.50
2018-06-19T06:57:27.968Z,67.50
2018-06-19T06:58:27.956Z,73.13
2018-06-19T06:59:27.954Z,61.88
2018-06-19T07:00:27.936Z,50.63
2018-06-19T07:01:27.930Z,61.88
2018-06-19T07:02:27.919Z,50.63
2018-06-19T07:03:27.904Z,56.25
2018-06-19T07:04:27.899Z,45.00
2018-06-19T07:05:27.891Z,73.13
2018-06-19T07:06:27.883Z,22.50
2018-06-19T07:07:27.873Z,22.50
2018-06-19T07:08:27.864Z,22.50
2018-06-19T07:09:27.862Z,73.13
2018-06-19T07:10:27.846Z,73.13
2018-06-19T07:11:27.838Z,61.88
2018-06-19T07:12:27.828Z,73.13
2018-06-19T07:13:27.879Z,78.75
2018-06-19T07:14:27.811Z,56.25
2018-06-19T07:15:27.803Z,22.50
2018-06-19T07:16:27.796Z,22.50
2018-06-19T07:17:27.786Z,78.75
2018-06-19T07:18:27.778Z,78.75
2018-06-19T07:19:27.821Z,33.75
2018-06-19T07:20:27.763Z,73.13
2018-06-19T07:21:27.751Z,56.25
2018-06-19T07:22:27.787Z,22.50
2018-06-19T07:23:27.729Z,39.38
2018-06-19T07:24:27.725Z,73.13
2018-06-19T07:25:27.717Z,33.75
2018-06-19T07:26:27.705Z,22.50
2018-06-19T07:27:27.699Z,56.25
2018-06-19T07:28:27.690Z,78.75
2018-06-19T07:29:27.678Z,73.13
2018-06-19T07:30:27.672Z,50.63
2018-06-19T07:31:27.664Z,78.75
2018-06-19T07:32:27.658Z,61.88
2018-06-19T07:33:27.646Z,73.13
2018-06-19T07:34:27.640Z,78.75
2018-06-19T07:35:27.632Z,78.75
2018-06-19T07:36:27.621Z,78.75
2018-06-19T07:37:27.613Z,39.38
2018-06-19T07:38:27.763Z,78.75
2018-06-19T07:39:27.593Z,78.75
2018-06-19T07:40:27.589Z,78.75
2018-06-19T07:41:27.577Z,78.75
2018-06-19T07:42:27.569Z,78.75
2018-06-19T07:43:27.564Z,78.75
2018-06-19T07:44:27.553Z,78.75
2018-06-19T07:45:27.542Z,78.75
2018-06-19T07:46:27.537Z,78.75
2018-06-19T07:47:27.527Z,78.75
2018-06-19T07:48:27.523Z,78.75
2018-06-19T07:49:27.541Z,78.75
2018-06-19T07:50:27.510Z,61.88
2018-06-19T07:51:27.498Z,78.75
2018-06-19T07:52:27.494Z,78.75
2018-06-19T07:53:27.485Z,61.88
2018-06-19T07:54:27.475Z,78.75
2018-06-19T07:55:27.474Z,84.38
2018-06-19T07:56:27.467Z,84.38
2018-06-19T07:57:27.453Z,84.38
2018-06-19T07:58:27.462Z,84.38
2018-06-19T07:59:27.433Z,84.38
2018-06-19T08:00:27.430Z,84.38
2018-06-19T08:01:27.420Z,84.38
2018-06-19T08:02:27.410Z,84.38
2018-06-19T08:03:27.405Z,90.00
2018-06-19T08:04:27.401Z,84.38
2018-06-19T08:05:27.389Z,73.13
2018-06-19T08:06:27.387Z,84.38
2018-06-19T08:07:27.373Z,90.00
2018-06-19T08:08:27.368Z,90.00
2018-06-19T08:09:27.358Z,90.00
2018-06-19T08:10:27.348Z,90.00
2018-06-19T08:11:27.346Z,90.00
2018-06-19T08:12:27.980Z,90.00
2018-06-19T08:13:27.394Z,90.00
2018-06-19T08:14:27.323Z,90.00
2018-06-19T08:15:27.308Z,90.00
2018-06-19T08:16:27.309Z,90.00
2018-06-19T08:17:27.299Z,90.00
2018-06-19T08:18:27.293Z,90.00
2018-06-19T08:19:27.281Z,90.00
2018-06-19T08:20:27.271Z,84.38
2018-06-19T08:21:27.267Z,56.25
2018-06-19T08:22:27.261Z,95.63
2018-06-19T08:23:27.253Z,90.00
2018-06-19T08:24:27.238Z,90.00
2018-06-19T08:25:27.234Z,90.00
2018-06-19T08:26:27.224Z,90.00
2018-06-19T08:27:27.219Z,90.00
2018-06-19T08:28:27.212Z,95.63
2018-06-19T08:29:27.210Z,95.63
2018-06-19T08:30:27.192Z,95.63
2018-06-19T08:31:27.186Z,95.63
2018-06-19T08:32:27.182Z,95.63
2018-06-19T08:33:27.177Z,95.63
2018-06-19T08:34:27.172Z,95.63
2018-06-19T08:35:27.157Z,95.63
2018-06-19T08:36:27.154Z,95.63
2018-06-19T08:37:27.147Z,95.63
2018-06-19T08:38:27.134Z,95.63
2018-06-19T08:39:27.131Z,90.00
2018-06-19T08:40:27.121Z,95.63
2018-06-19T08:41:27.113Z,90.00
2018-06-19T08:42:27.105Z,95.63
2018-06-19T08:43:27.097Z,95.63
2018-06-19T08:44:27.087Z,95.63
2018-06-19T08:45:27.086Z,95.63
2018-06-19T08:46:27.075Z,95.63
2018-06-19T08:47:27.069Z,95.63
2018-06-19T08:48:27.064Z,95.63
2018-06-19T08:49:27.054Z,95.63
2018-06-19T08:50:27.050Z,95.63
2018-06-19T08:51:27.038Z,95.63
2018-06-19T08:52:27.028Z,95.63
2018-06-19T08:53:27.018Z,95.63
2018-06-19T08:54:27.017Z,95.63
2018-06-19T08:55:27.012Z,95.63
2018-06-19T08:56:27.003Z,95.63
2018-06-19T08:57:26.993Z,95.63
2018-06-19T08:58:26.988Z,95.63
2018-06-19T08:59:26.975Z,95.63
2018-06-19T09:00:26.971Z,95.63
2018-06-19T09:01:26.968Z,95.63
2018-06-19T09:02:26.957Z,95.63
2018-06-19T09:03:26.951Z,95.63
2018-06-19T09:04:26.934Z,95.63
2018-06-19T09:05:26.934Z,95.63
2018-06-19T09:06:26.924Z,95.63
2018-06-19T09:07:26.912Z,95.63
2018-06-19T09:08:26.920Z,95.63
2018-06-19T09:09:26.907Z,95.63
2018-06-19T09:10:26.895Z,95.63
2018-06-19T09:11:26.891Z,95.63
2018-06-19T09:12:26.883Z,95.63
2018-06-19T09:13:26.902Z,95.63
2018-06-19T09:14:26.869Z,95.63
2018-06-19T09:15:26.861Z,95.63
2018-06-19T09:16:26.857Z,95.63
2018-06-19T09:17:26.846Z,95.63
2018-06-19T09:18:26.834Z,95.63
2018-06-19T09:19:26.830Z,95.63
2018-06-19T09:20:26.864Z,95.63
2018-06-19T09:21:26.819Z,95.63
2018-06-19T09:22:26.811Z,95.63
2018-06-19T09:23:26.804Z,95.63
2018-06-19T09:24:26.798Z,95.63
2018-06-19T09:25:26.797Z,95.63
2018-06-19T09:26:26.779Z,95.63
2018-06-19T09:27:26.772Z,95.63
2018-06-19T09:28:26.777Z,95.63
2018-06-19T09:29:26.758Z,95.63
2018-06-19T09:30:26.753Z,95.63
2018-06-19T09:31:26.841Z,95.63
2018-06-19T09:32:26.741Z,95.63
2018-06-19T09:33:26.732Z,95.63
2018-06-19T09:34:26.722Z,95.63
2018-06-19T09:35:26.716Z,95.63
2018-06-19T09:36:26.703Z,95.63
2018-06-19T09:37:26.703Z,95.63
2018-06-19T09:38:26.702Z,95.63
2018-06-19T09:39:26.689Z,95.63
2018-06-19T09:40:26.688Z,95.63
2018-06-19T09:41:26.670Z,95.63
2018-06-19T09:42:26.667Z,95.63
2018-06-19T09:43:26.656Z,95.63
2018-06-19T09:44:26.649Z,95.63
2018-06-19T09:45:26.647Z,95.63
2018-06-19T09:46:26.639Z,95.63
2018-06-19T09:47:26.630Z,95.63
2018-06-19T09:48:26.623Z,95.63
2018-06-19T09:49:26.616Z,95.63
2018-06-19T09:50:26.614Z,95.63
2018-06-19T09:51:26.599Z,95.63
2018-06-19T09:52:26.594Z,95.63
2018-06-19T09:53:26.581Z,95.63
2018-06-19T09:54:26.588Z,95.63
2018-06-19T09:55:26.568Z,95.63
2018-06-19T09:56:26.564Z,95.63
2018-06-19T09:57:26.558Z,95.63
2018-06-19T09:58:26.593Z,95.63
2018-06-19T09:59:26.554Z,95.63
2018-06-19T10:00:26.535Z,95.63
2018-06-19T10:01:26.537Z,95.63
2018-06-19T10:02:26.528Z,95.63
2018-06-19T10:03:26.511Z,95.63
2018-06-19T10:04:26.521Z,95.63
2018-06-19T10:05:26.503Z,95.63
2018-06-19T10:06:26.517Z,95.63
2018-06-19T10:07:26.490Z,95.63
2018-06-19T10:08:26.482Z,95.63
2018-06-19T10:09:26.473Z,95.63
2018-06-19T10:10:26.466Z,95.63
2018-06-19T10:11:26.455Z,95.63
2018-06-19T10:12:26.454Z,95.63
2018-06-19T10:13:26.466Z,95.63
2018-06-19T10:14:26.440Z,95.63
2018-06-19T10:15:26.435Z,95.63
2018-06-19T10:16:26.422Z,95.63
2018-06-19T10:17:26.422Z,95.63
2018-06-19T10:18:26.410Z,95.63
2018-06-19T10:19:26.470Z,95.63
2018-06-19T10:20:26.395Z,95.63
2018-06-19T10:21:26.388Z,95.63
2018-06-19T10:22:26.380Z,95.63
2018-06-19T10:23:26.379Z,95.63
2018-06-19T10:24:26.372Z,95.63
2018-06-19T10:25:26.369Z,95.63
2018-06-19T10:26:26.356Z,95.63
2018-06-19T10:27:26.351Z,95.63
2018-06-19T10:28:26.343Z,95.63
2018-06-19T10:29:26.337Z,95.63
2018-06-19T10:30:26.329Z,95.63
2018-06-19T10:31:26.325Z,101.25
2018-06-19T10:32:26.317Z,101.25
2018-06-19T10:33:26.310Z,101.25
2018-06-19T10:34:26.298Z,101.25
2018-06-19T10:35:26.298Z,101.25
2018-06-19T10:36:26.290Z,101.25
2018-06-19T10:37:26.286Z,101.25
2018-06-19T10:38:26.275Z,101.25
2018-06-19T10:39:26.262Z,101.25
2018-06-19T10:40:26.260Z,101.25
2018-06-19T10:41:26.258Z,101.25
2018-06-19T10:42:26.249Z,101.25
2018-06-19T10:43:26.248Z,101.25
2018-06-19T10:44:26.245Z,101.25
2018-06-19T10:45:26.232Z,101.25
2018-06-19T10:46:26.230Z,101.25
2018-06-19T10:47:26.217Z,101.25
2018-06-19T10:48:26.207Z,101.25
2018-06-19T10:49:26.200Z,106.88
2018-06-19T10:50:26.190Z,106.88
2018-06-19T10:51:26.196Z,106.88
2018-06-19T10:52:26.181Z,106.88
2018-06-19T10:53:26.173Z,106.88
2018-06-19T10:54:26.167Z,106.88
2018-06-19T10:55:26.160Z,106.88
2018-06-19T10:56:26.152Z,106.88
2018-06-19T10:57:26.152Z,106.88
2018-06-19T10:58:26.135Z,106.88
2018-06-19T10:59:26.133Z,106.88
2018-06-19T11:00:26.127Z,106.88
2018-06-19T11:01:26.121Z,106.88
2018-06-19T11:02:26.113Z,106.88
2018-06-19T11:03:26.107Z,112.50
2018-06-19T11:04:26.100Z,112.50
2018-06-19T11:05:26.095Z,112.50
2018-06-19T11:06:26.085Z,112.50
2018-06-19T11:07:26.079Z,112.50
2018-06-19T11:08:26.076Z,112.50
2018-06-19T11:09:26.067Z,112.50
2018-06-19T11:10:26.071Z,112.50
2018-06-19T11:11:26.059Z,112.50
2018-06-19T11:12:26.051Z,112.50
2018-06-19T11:13:26.042Z,112.50
2018-06-19T11:14:26.039Z,112.50
2018-06-19T11:15:26.035Z,118.13
2018-06-19T11:16:26.054Z,118.13
2018-06-19T11:17:26.047Z,118.13
2018-06-19T11:18:26.014Z,118.13
2018-06-19T11:19:26.006Z,118.13
2018-06-19T11:20:26.000Z,118.13
2018-06-19T11:21:26.040Z,118.13
2018-06-19T11:22:25.989Z,118.13
2018-06-19T11:23:25.981Z,118.13
2018-06-19T11:24:25.970Z,118.13
2018-06-19T11:25:25.964Z,118.13
2018-06-19T11:26:25.963Z,118.13
2018-06-19T11:27:25.953Z,118.13
2018-06-19T11:28:25.954Z,123.75
2018-06-19T11:29:25.943Z,123.75
2018-06-19T11:30:25.939Z,123.75
2018-06-19T11:31:25.936Z,118.13
2018-06-19T11:32:25.926Z,123.75
2018-06-19T11:33:25.920Z,123.75
2018-06-19T11:34:25.917Z,123.75
2018-06-19T11:35:25.904Z,123.75
2018-06-19T11:36:25.903Z,123.75
2018-06-19T11:37:25.899Z,123.75
2018-06-19T11:38:25.891Z,123.75
2018-06-19T11:39:25.888Z,123.75
2018-06-19T11:40:25.876Z,123.75
2018-06-19T11:41:25.873Z,123.75
2018-06-19T11:42:25.869Z,123.75
2018-06-19T11:43:25.886Z,123.75
2018-06-19T11:44:25.857Z,123.75
2018-06-19T11:45:25.856Z,123.75
2018-06-19T11:46:25.846Z,123.75
2018-06-19T11:47:25.835Z,129.38
2018-06-19T11:48:25.831Z,129.38
2018-06-19T11:49:25.828Z,129.38
2018-06-19T11:50:25.821Z,129.38
2018-06-19T11:51:25.868Z,129.38
2018-06-19T11:52:25.808Z,129.38
2018-06-19T11:53:25.806Z,129.38
2018-06-19T11:54:25.800Z,129.38
2018-06-19T11:55:25.792Z,129.38
2018-06-19T11:56:25.789Z,129.38
2018-06-19T11:57:25.779Z,129.38
2018-06-19T11:58:25.785Z,129.38
2018-06-19T11:59:25.773Z,129.38
2018-06-19T12:00:25.763Z,129.38
2018-06-19T12:01:25.763Z,129.38
2018-06-19T12:02:25.753Z,135.00
2018-06-19T12:03:25.744Z,135.00
2018-06-19T12:04:25.747Z,135.00
2018-06-19T12:05:25.740Z,135.00
2018-06-19T12:06:25.748Z,135.00
2018-06-19T12:07:25.732Z,135.00
2018-06-19T12:08:25.727Z,135.00
2018-06-19T12:09:25.721Z,135.00
2018-06-19T12:10:25.713Z,135.00
2018-06-19T12:11:25.706Z,135.00
2018-06-19T12:12:25.701Z,135.00
2018-06-19T12:13:25.697Z,135.00
2018-06-19T12:14:25.689Z,135.00
2018-06-19T12:15:25.689Z,135.00
2018-06-19T12:16:25.680Z,140.63
2018-06-19T12:17:25.674Z,140.63
2018-06-19T12:18:25.667Z,140.63
2018-06-19T12:19:25.664Z,140.63
2018-06-19T12:20:25.661Z,140.63
2018-06-19T12:21:25.663Z,140.63
2018-06-19T12:22:25.646Z,140.63
2018-06-19T12:23:25.642Z,140.63
2018-06-19T12:24:25.640Z,140.63
2018-06-19T12:25:25.631Z,146.25
2018-06-19T12:26:25.629Z,146.25
2018-06-19T12:27:25.617Z,146.25
2018-06-19T12:28:25.613Z,146.25
2018-06-19T12:29:25.615Z,146.25
2018-06-19T12:30:25.609Z,146.25
2018-06-19T12:31:25.606Z,146.25
2018-06-19T12:32:25.602Z,146.25
2018-06-19T12:33:25.590Z,146.25
2018-06-19T12:34:25.588Z,151.88
2018-06-19T12:35:25.584Z,151.88
2018-06-19T12:36:25.637Z,151.88
2018-06-19T12:37:25.587Z,151.88
2018-06-19T12:38:25.573Z,151.88
2018-06-19T12:39:25.562Z,151.88
2018-06-19T12:40:25.553Z,151.88
2018-06-19T12:41:25.549Z,157.50
2018-06-19T12:42:25.545Z,157.50
2018-06-19T12:43:25.539Z,157.50
2018-06-19T12:44:25.533Z,157.50
2018-06-19T12:45:25.533Z,157.50
2018-06-19T12:46:25.527Z,157.50
2018-06-19T12:47:25.521Z,157.50
2018-06-19T12:48:25.516Z,157.50
2018-06-19T12:49:25.512Z,157.50
2018-06-19T12:50:25.508Z,157.50
2018-06-19T12:51:25.506Z,157.50
2018-06-19T12:52:25.494Z,157.50
2018-06-19T12:53:25.494Z,157.50
2018-06-19T12:54:25.490Z,157.50
2018-06-19T12:55:25.487Z,163.13
2018-06-19T12:56:25.479Z,163.13
2018-06-19T12:57:25.473Z,163.13